createdAt,value
2018-08-24T07:16:23.000Z,47
2018-08-24T07:17:23.000Z,47
2018-08-24T07:18:23.000Z,47
2018-08-24T07:19:23.000Z,47
2018-08-24T07:20:23.000Z,46
2018-08-24T07:21:23.000Z,46
2018-08-24T07:22:23.000Z,46
2018-08-24T07:23:23.000Z,46
2018-08-24T07:24:23.000Z,46
2018-08-24T07:25:23.000Z,45
2018-08-24T07:26:23.000Z,45
2018-08-24T07:27:23.000Z,45
2018-08-24T07:28:23.000Z,45
2018-08-24T07:29:23.000Z,45
2018-08-24T07:30:23.000Z,44
2018-08-24T07:31:23.000Z,44
2018-08-24T07:32:23.000Z,44
2018-08-24T07:33:23.000Z,44
2018-08-24T07:34:23.000Z,44
2018-08-24T07:35:23.000Z,44
2018-08-24T07:36:23.000Z,44
2018-08-24T07:37:23.000Z,44
2018-08-24T07:38:23.000Z,43
2018-08-24T07:39:23.000Z,44
2018-08-24T07:40:23.000Z,43
2018-08-24T07:42:23.000Z,43
2018-08-24T07:43:24.000Z,43
2018-08-24T07:44:24.000Z,43
2018-08-24T07:45:24.000Z,43
2018-08-24T07:46:24.000Z,43
2018-08-24T07:47:24.000Z,43
2018-08-24T07:49:24.000Z,43
2018-08-24T07:50:24.000Z,43
2018-08-24T07:51:24.000Z,43
2018-08-24T07:52:24.000Z,43
2018-08-24T07:53:24.000Z,43
2018-08-24T07:54:24.000Z,43
2018-08-24T07:55:24.000Z,43
2018-08-24T07:56:24.000Z,43
2018-08-24T07:57:24.000Z,42
2018-08-24T07:58:24.000Z,43
2018-08-24T07:59:24.000Z,43
2018-08-24T08:00:24.000Z,42
2018-08-24T08:01:24.000Z,42
2018-08-24T08:02:24.000Z,42
2018-08-24T08:03:24.000Z,42
2018-08-24T08:05:24.000Z,42
2018-08-24T08:06:24.000Z,42
2018-08-24T08:07:24.000Z,42
2018-08-24T08:08:24.000Z,42
2018-08-24T08:09:24.000Z,42
2018-08-24T08:10:24.000Z,42
2018-08-24T08:11:24.000Z,42
2018-08-24T08:12:24.000Z,42
2018-08-24T08:13:24.000Z,42
2018-08-24T08:14:24.000Z,42
2018-08-24T08:15:24.000Z,42
2018-08-24T08:16:24.000Z,42
2018-08-24T08:17:24.000Z,42
2018-08-24T08:18:24.000Z,41
2018-08-24T08:19:24.000Z,41
2018-08-24T08:20:24.000Z,41
2018-08-24T08:21:24.000Z,41
2018-08-24T08:22:24.000Z,41
2018-08-24T08:24:24.000Z,41
2018-08-24T08:25:24.000Z,41
2018-08-24T08:26:24.000Z,41
2018-08-24T08:27:24.000Z,41
2018-08-24T08:28:24.000Z,41
2018-08-24T08:29:24.000Z,41
2018-08-24T08:30:24.000Z,41
2018-08-24T08:32:24.000Z,41
2018-08-24T08:33:24.000Z,41
2018-08-24T08:34:24.000Z,41
2018-08-24T08:35:24.000Z,41
2018-08-24T08:36:24.000Z,41
2018-08-24T08:37:24.000Z,41
2018-08-24T08:38:24.000Z,41
2018-08-24T08:39:24.000Z,41
2018-08-24T08:40:24.000Z,41
2018-08-24T08:41:24.000Z,41
2018-08-24T08:42:24.000Z,41
2018-08-24T08:43:24.000Z,40
2018-08-24T08:44:24.000Z,41
2018-08-24T08:45:24.000Z,41
2018-08-24T08:46:24.000Z,40
2018-08-24T08:48:24.000Z,40
2018-08-24T08:49:24.000Z,40
2018-08-24T08:50:24.000Z,40
2018-08-24T08:51:24.000Z,40
2018-08-24T08:52:24.000Z,40
2018-08-24T08:53:24.000Z,40
2018-08-24T08:54:24.000Z,40
2018-08-24T08:56:24.000Z,40
2018-08-24T08:57:24.000Z,40
2018-08-24T08:59:24.000Z,40
2018-08-24T09:00:24.000Z,40
2018-08-24T09:01:24.000Z,40
2018-08-24T09:02:24.000Z,40
2018-08-24T09:03:24.000Z,40
2018-08-24T09:04:24.000Z,40
2018-08-24T09:05:24.000Z,40
2018-08-24T09:06:24.000Z,40
2018-08-24T09:07:24.000Z,40
2018-08-24T09:08:24.000Z,40
2018-08-24T09:09:24.000Z,40
2018-08-24T09:10:24.000Z,40
2018-08-24T09:11:24.000Z,40
2018-08-24T09:12:24.000Z,40
2018-08-24T09:13:24.000Z,40
2018-08-24T09:14:24.000Z,40
2018-08-24T09:15:24.000Z,40
2018-08-24T09:16:24.000Z,40
2018-08-24T09:17:24.000Z,40
2018-08-24T09:18:24.000Z,40
2018-08-24T09:19:24.000Z,40
2018-08-24T09:20:24.000Z,40
2018-08-24T09:21:24.000Z,40
2018-08-24T09:22:24.000Z,40
2018-08-24T09:24:24.000Z,39
2018-08-24T09:25:24.000Z,40
2018-08-24T09:26:24.000Z,40
2018-08-24T09:29:18.000Z,40
2018-08-24T09:30:18.000Z,40
2018-08-24T09:31:18.000Z,40
2018-08-24T09:32:18.000Z,40
2018-08-24T09:33:18.000Z,39
2018-08-24T09:34:18.000Z,39
2018-08-24T09:36:18.000Z,39
2018-08-24T09:37:18.000Z,39
2018-08-24T09:38:18.000Z,39
2018-08-24T09:39:18.000Z,39
2018-08-24T09:40:18.000Z,39
2018-08-24T09:41:18.000Z,39
2018-08-24T09:42:18.000Z,39
2018-08-24T09:43:18.000Z,39
2018-08-24T09:45:18.000Z,39
2018-08-24T09:47:18.000Z,39
2018-08-24T09:48:18.000Z,39
2018-08-24T09:49:18.000Z,39
2018-08-24T09:50:19.000Z,39
2018-08-24T09:51:19.000Z,39
2018-08-24T09:52:19.000Z,39
2018-08-24T09:53:19.000Z,39
2018-08-24T09:55:19.000Z,38
2018-08-24T09:56:19.000Z,38
2018-08-24T09:57:19.000Z,38
2018-08-24T09:58:19.000Z,38
2018-08-24T09:59:19.000Z,38
2018-08-24T10:00:19.000Z,38
2018-08-24T10:02:19.000Z,37
2018-08-24T10:03:19.000Z,37
2018-08-24T10:05:19.000Z,37
2018-08-24T10:06:19.000Z,37
2018-08-24T10:08:19.000Z,36
2018-08-24T10:09:19.000Z,36
2018-08-24T10:10:19.000Z,36
2018-08-24T10:11:19.000Z,36
2018-08-24T10:12:19.000Z,36
2018-08-24T10:13:19.000Z,36
2018-08-24T10:14:19.000Z,36
2018-08-24T10:15:19.000Z,36
2018-08-24T10:17:19.000Z,36
2018-08-24T10:18:19.000Z,36
2018-08-24T10:20:19.000Z,36
2018-08-24T10:21:19.000Z,36
2018-08-24T10:22:19.000Z,36
2018-08-24T10:23:19.000Z,36
2018-08-24T10:24:19.000Z,36
2018-08-24T10:25:19.000Z,36
2018-08-24T10:26:19.000Z,36
2018-08-24T10:27:19.000Z,36
2018-08-24T10:29:19.000Z,36
2018-08-24T10:30:19.000Z,36
2018-08-24T10:31:19.000Z,36
2018-08-24T10:32:19.000Z,36
2018-08-24T10:33:19.000Z,35
2018-08-24T10:35:19.000Z,35
2018-08-24T10:36:19.000Z,35
2018-08-24T10:37:19.000Z,35
2018-08-24T10:38:19.000Z,35
2018-08-24T10:39:19.000Z,35
2018-08-24T10:40:19.000Z,34
2018-08-24T10:41:19.000Z,34
2018-08-24T10:42:19.000Z,33
2018-08-24T10:44:19.000Z,32
2018-08-24T10:45:19.000Z,32
2018-08-24T10:47:19.000Z,32
2018-08-24T10:49:19.000Z,31
2018-08-24T10:50:19.000Z,31
2018-08-24T10:51:19.000Z,31
2018-08-24T10:52:19.000Z,31
2018-08-24T10:53:19.000Z,31
2018-08-24T10:54:19.000Z,32
2018-08-24T10:56:19.000Z,31
2018-08-24T10:57:19.000Z,30
2018-08-24T10:58:19.000Z,30
2018-08-24T10:59:19.000Z,30
2018-08-24T11:01:19.000Z,29
2018-08-24T11:02:19.000Z,29
2018-08-24T11:03:19.000Z,29
2018-08-24T11:04:19.000Z,28
2018-08-24T11:05:19.000Z,28
2018-08-24T11:07:19.000Z,29
2018-08-24T11:09:19.000Z,29
2018-08-24T11:10:19.000Z,30
2018-08-24T11:11:19.000Z,30
2018-08-24T11:13:19.000Z,30
2018-08-24T11:14:19.000Z,30
2018-08-24T11:15:19.000Z,30
2018-08-24T11:16:19.000Z,31
2018-08-24T11:17:19.000Z,31
2018-08-24T11:18:19.000Z,31
2018-08-24T11:19:19.000Z,31
2018-08-24T11:20:19.000Z,31
2018-08-24T11:21:19.000Z,31
2018-08-24T11:22:19.000Z,31
2018-08-24T11:23:19.000Z,31
2018-08-24T11:24:19.000Z,31
2018-08-24T11:26:19.000Z,31
2018-08-24T11:27:19.000Z,31
2018-08-24T11:28:19.000Z,31
2018-08-24T11:29:19.000Z,31
2018-08-24T11:30:19.000Z,31
2018-08-24T11:31:19.000Z,31
2018-08-24T11:33:19.000Z,30
2018-08-24T11:34:19.000Z,30
2018-08-24T11:35:19.000Z,31
2018-08-24T11:36:19.000Z,30
2018-08-24T11:37:19.000Z,30
2018-08-24T11:38:19.000Z,30
2018-08-24T11:39:19.000Z,30
2018-08-24T11:41:19.000Z,30
2018-08-24T11:42:19.000Z,30
2018-08-24T11:43:19.000Z,30
2018-08-24T11:45:19.000Z,30
2018-08-24T11:46:19.000Z,30
2018-08-24T11:47:19.000Z,30
2018-08-24T11:48:19.000Z,30
2018-08-24T11:49:19.000Z,30
2018-08-24T11:50:19.000Z,30
2018-08-24T11:51:19.000Z,30
2018-08-24T11:52:19.000Z,30
2018-08-24T11:53:19.000Z,30
2018-08-24T11:54:19.000Z,30
2018-08-24T11:55:19.000Z,30
2018-08-24T11:56:19.000Z,30
2018-08-24T11:57:19.000Z,30
2018-08-24T11:58:19.000Z,30
2018-08-24T11:59:19.000Z,30
2018-08-24T12:00:19.000Z,30
2018-08-24T12:01:19.000Z,30
2018-08-24T12:02:19.000Z,30
2018-08-24T12:03:19.000Z,30
2018-08-24T12:04:19.000Z,30
2018-08-24T12:05:19.000Z,30
2018-08-24T12:06:19.000Z,30
2018-08-24T12:07:19.000Z,30
2018-08-24T12:08:19.000Z,30
2018-08-24T12:09:19.000Z,30
2018-08-24T12:10:19.000Z,30
2018-08-24T12:12:19.000Z,30
2018-08-24T12:14:19.000Z,30
2018-08-24T12:15:19.000Z,30
2018-08-24T12:16:19.000Z,30
2018-08-24T12:17:19.000Z,30
2018-08-24T12:18:19.000Z,30
2018-08-24T12:19:19.000Z,30
2018-08-24T12:21:19.000Z,30
2018-08-24T12:22:19.000Z,30
2018-08-24T12:23:19.000Z,30
2018-08-24T12:25:19.000Z,30
2018-08-24T12:26:19.000Z,30
2018-08-24T12:27:19.000Z,30
2018-08-24T12:28:19.000Z,30
2018-08-24T12:29:19.000Z,30
2018-08-24T12:30:19.000Z,30
2018-08-24T12:31:19.000Z,30
2018-08-24T12:32:19.000Z,30
2018-08-24T12:33:19.000Z,30
2018-08-24T12:34:19.000Z,30
2018-08-24T12:35:19.000Z,30
2018-08-24T12:36:19.000Z,30
2018-08-24T12:37:19.000Z,30
2018-08-24T12:38:19.000Z,30
2018-08-24T12:39:19.000Z,30
2018-08-24T12:40:19.000Z,30
2018-08-24T12:41:19.000Z,30
2018-08-24T12:43:19.000Z,29
2018-08-24T12:44:19.000Z,30
2018-08-24T12:45:19.000Z,30
2018-08-24T12:46:19.000Z,30
2018-08-24T12:47:19.000Z,30
2018-08-24T12:48:19.000Z,30
2018-08-24T12:50:19.000Z,30
2018-08-24T12:51:19.000Z,30
2018-08-24T12:52:19.000Z,30
2018-08-24T12:53:19.000Z,30
2018-08-24T12:54:19.000Z,30
2018-08-24T12:55:19.000Z,30
2018-08-24T12:56:19.000Z,30
2018-08-24T12:57:19.000Z,30
2018-08-24T12:58:19.000Z,29
2018-08-24T12:59:19.000Z,29
2018-08-24T13:00:19.000Z,29
2018-08-24T13:01:19.000Z,29
2018-08-24T13:03:19.000Z,29
2018-08-24T13:04:19.000Z,29
2018-08-24T13:05:19.000Z,29
2018-08-24T13:06:19.000Z,29
2018-08-24T13:07:19.000Z,29
2018-08-24T13:08:19.000Z,29
2018-08-24T13:09:19.000Z,29
2018-08-24T13:10:19.000Z,29
2018-08-24T13:11:19.000Z,29
2018-08-24T13:12:19.000Z,29
2018-08-24T13:13:19.000Z,29
2018-08-24T13:14:19.000Z,29
2018-08-24T13:15:19.000Z,29
2018-08-24T13:16:19.000Z,30
2018-08-24T13:17:19.000Z,30
2018-08-24T13:18:19.000Z,30
2018-08-24T13:19:19.000Z,29
2018-08-24T13:20:19.000Z,29
2018-08-24T13:21:19.000Z,30
2018-08-24T13:22:19.000Z,29
2018-08-24T13:23:19.000Z,29
2018-08-24T13:24:19.000Z,29
2018-08-24T13:25:19.000Z,30
2018-08-24T13:26:19.000Z,30
2018-08-24T13:27:19.000Z,30
2018-08-24T13:28:19.000Z,30
2018-08-24T13:29:19.000Z,29
2018-08-24T13:30:19.000Z,29
2018-08-24T13:32:19.000Z,29
2018-08-24T13:33:19.000Z,29
2018-08-24T13:34:19.000Z,29
2018-08-24T13:35:19.000Z,29
2018-08-24T13:36:19.000Z,29
2018-08-24T13:37:19.000Z,29
2018-08-24T13:39:19.000Z,29
2018-08-24T13:40:19.000Z,29
2018-08-24T13:41:19.000Z,29
2018-08-24T13:42:19.000Z,29
2018-08-24T13:43:19.000Z,29
2018-08-24T13:45:19.000Z,29
2018-08-24T13:46:19.000Z,29
2018-08-24T13:47:19.000Z,29
2018-08-24T13:48:19.000Z,29
2018-08-24T13:50:19.000Z,29
2018-08-24T13:51:19.000Z,29
2018-08-24T13:52:19.000Z,29
2018-08-24T13:53:19.000Z,29
2018-08-24T13:54:19.000Z,29
2018-08-24T13:55:19.000Z,29
2018-08-24T13:56:19.000Z,29
2018-08-24T13:57:19.000Z,29
2018-08-24T13:58:19.000Z,29
2018-08-24T13:59:19.000Z,29
2018-08-24T14:00:19.000Z,29
2018-08-24T14:01:19.000Z,29
2018-08-24T14:02:19.000Z,29
2018-08-24T14:04:19.000Z,29
2018-08-24T14:05:19.000Z,29
2018-08-24T14:07:19.000Z,29
2018-08-24T14:08:19.000Z,29
2018-08-24T14:09:19.000Z,29
2018-08-24T14:10:19.000Z,29
2018-08-24T14:11:19.000Z,29
2018-08-24T14:12:19.000Z,29
2018-08-24T14:13:19.000Z,29
2018-08-24T14:15:19.000Z,28
2018-08-24T14:17:19.000Z,28
2018-08-24T14:18:19.000Z,28
2018-08-24T14:19:19.000Z,28
2018-08-24T14:20:19.000Z,28
2018-08-24T14:21:19.000Z,29
2018-08-24T14:23:19.000Z,28
2018-08-24T14:24:19.000Z,28
2018-08-24T14:25:19.000Z,28
2018-08-24T14:26:19.000Z,28
2018-08-24T14:28:19.000Z,28
2018-08-24T14:29:19.000Z,28
2018-08-24T14:30:19.000Z,28
2018-08-24T14:31:19.000Z,28
2018-08-24T14:32:19.000Z,28
2018-08-24T14:33:19.000Z,28
2018-08-24T14:34:19.000Z,28
2018-08-24T14:35:19.000Z,29
2018-08-24T14:36:19.000Z,29
2018-08-24T14:37:19.000Z,28
2018-08-24T14:38:19.000Z,29
2018-08-24T14:39:19.000Z,29
2018-08-24T14:40:19.000Z,29
2018-08-24T14:41:19.000Z,29
2018-08-24T14:42:19.000Z,29
2018-08-24T14:43:19.000Z,29
2018-08-24T14:44:19.000Z,29
2018-08-24T14:45:19.000Z,29
2018-08-24T14:46:19.000Z,29
2018-08-24T14:47:19.000Z,29
2018-08-24T14:48:19.000Z,29
2018-08-24T14:49:19.000Z,29
2018-08-24T14:50:19.000Z,29
2018-08-24T14:51:19.000Z,29
2018-08-24T14:52:19.000Z,29
2018-08-24T14:53:19.000Z,29
2018-08-24T14:54:19.000Z,29
2018-08-24T14:55:19.000Z,29
2018-08-24T14:56:19.000Z,29
2018-08-24T14:57:19.000Z,29
2018-08-24T14:59:19.000Z,29
2018-08-24T15:00:19.000Z,29
2018-08-24T15:01:19.000Z,29
2018-08-24T15:02:19.000Z,29
2018-08-24T15:03:19.000Z,29
2018-08-24T15:04:19.000Z,29
2018-08-24T15:06:19.000Z,29
2018-08-24T15:07:19.000Z,29
2018-08-24T15:09:19.000Z,28
2018-08-24T15:11:19.000Z,28
2018-08-24T15:12:19.000Z,28
2018-08-24T15:13:19.000Z,28
2018-08-24T15:14:19.000Z,28
2018-08-24T15:15:19.000Z,28
2018-08-24T15:16:19.000Z,28
2018-08-24T15:17:19.000Z,28
2018-08-24T15:19:19.000Z,28
2018-08-24T15:20:19.000Z,28
2018-08-24T15:21:19.000Z,28
2018-08-24T15:22:19.000Z,28
2018-08-24T15:23:19.000Z,28
2018-08-24T15:25:19.000Z,28
2018-08-24T15:27:19.000Z,28
2018-08-24T15:28:19.000Z,28
2018-08-24T15:29:19.000Z,28
2018-08-24T15:30:19.000Z,28
2018-08-24T15:31:19.000Z,28
2018-08-24T15:32:19.000Z,28
2018-08-24T15:33:19.000Z,28
2018-08-24T15:34:19.000Z,28
2018-08-24T15:35:19.000Z,28
2018-08-24T15:36:19.000Z,28
2018-08-24T15:37:19.000Z,28
2018-08-24T15:39:19.000Z,28
2018-08-24T15:40:19.000Z,28
2018-08-24T15:41:19.000Z,28
2018-08-24T15:42:19.000Z,28
2018-08-24T15:43:19.000Z,28
2018-08-24T15:44:19.000Z,28
2018-08-24T15:45:19.000Z,28
2018-08-24T15:46:19.000Z,28
2018-08-24T15:47:19.000Z,28
2018-08-24T15:48:19.000Z,28
2018-08-24T15:49:19.000Z,28
2018-08-24T15:51:19.000Z,28
2018-08-24T15:52:19.000Z,28
2018-08-24T15:53:19.000Z,28
2018-08-24T15:54:19.000Z,28
2018-08-24T15:55:19.000Z,28
2018-08-24T15:56:19.000Z,28
2018-08-24T15:57:19.000Z,28
2018-08-24T15:58:19.000Z,28
2018-08-24T16:00:19.000Z,28
2018-08-24T16:01:19.000Z,28
2018-08-24T16:03:19.000Z,28
2018-08-24T16:05:19.000Z,28
2018-08-24T16:06:19.000Z,28
2018-08-24T16:08:19.000Z,28
2018-08-24T16:09:19.000Z,28
2018-08-24T16:10:19.000Z,28
2018-08-24T16:11:19.000Z,28
2018-08-24T16:12:19.000Z,28
2018-08-24T16:13:19.000Z,28
2018-08-24T16:15:19.000Z,28
2018-08-24T16:16:19.000Z,28
2018-08-24T16:17:19.000Z,28
2018-08-24T16:18:19.000Z,28
2018-08-24T16:19:19.000Z,28
2018-08-24T16:21:19.000Z,28
2018-08-24T16:22:19.000Z,28
2018-08-24T16:23:19.000Z,28
2018-08-24T16:24:19.000Z,28
2018-08-24T16:25:19.000Z,28
2018-08-24T16:26:19.000Z,28
2018-08-24T16:27:19.000Z,28
2018-08-24T16:28:19.000Z,28
2018-08-24T16:29:19.000Z,28
2018-08-24T16:30:19.000Z,28
2018-08-24T16:31:19.000Z,28
2018-08-24T16:32:19.000Z,28
2018-08-24T16:33:19.000Z,28
2018-08-24T16:34:19.000Z,28
2018-08-24T16:35:19.000Z,28
2018-08-24T16:36:19.000Z,28
2018-08-24T16:37:19.000Z,28
2018-08-24T16:38:19.000Z,28
2018-08-24T16:39:19.000Z,28
2018-08-24T16:40:19.000Z,28
2018-08-24T16:41:19.000Z,28
2018-08-24T16:42:19.000Z,28
2018-08-24T16:43:19.000Z,28
2018-08-24T16:44:19.000Z,28
2018-08-24T16:46:19.000Z,28
2018-08-24T16:47:19.000Z,28
2018-08-24T16:48:19.000Z,28
2018-08-24T16:49:19.000Z,28
2018-08-24T16:50:19.000Z,28
2018-08-24T16:51:19.000Z,28
2018-08-24T16:52:19.000Z,28
2018-08-24T16:53:19.000Z,28
2018-08-24T16:54:19.000Z,28
2018-08-24T16:55:19.000Z,28
2018-08-24T16:56:19.000Z,28
2018-08-24T16:57:19.000Z,28
2018-08-24T16:59:19.000Z,28
2018-08-24T17:00:19.000Z,28
2018-08-24T17:01:19.000Z,28
2018-08-24T17:02:19.000Z,28
2018-08-24T17:03:19.000Z,28
2018-08-24T17:04:19.000Z,28
2018-08-24T17:05:19.000Z,28
2018-08-24T17:06:19.000Z,28
2018-08-24T17:07:19.000Z,28
2018-08-24T17:09:19.000Z,28
2018-08-24T17:10:19.000Z,28
2018-08-24T17:12:19.000Z,28
2018-08-24T17:13:19.000Z,28
2018-08-24T17:14:19.000Z,28
2018-08-24T17:15:19.000Z,28
2018-08-24T17:16:19.000Z,28
2018-08-24T17:17:19.000Z,28
2018-08-24T17:18:19.000Z,28
2018-08-24T17:19:19.000Z,29
2018-08-24T17:20:19.000Z,28
2018-08-24T17:21:19.000Z,29
2018-08-24T17:23:19.000Z,29
2018-08-24T17:25:19.000Z,29
2018-08-24T17:26:19.000Z,29
2018-08-24T17:27:19.000Z,29
2018-08-24T17:28:19.000Z,29
2018-08-24T17:29:19.000Z,29
2018-08-24T17:30:19.000Z,29
2018-08-24T17:31:19.000Z,29
2018-08-24T17:32:19.000Z,29
2018-08-24T17:33:19.000Z,29
2018-08-24T17:34:19.000Z,29
2018-08-24T17:35:19.000Z,29
2018-08-24T17:36:19.000Z,29
2018-08-24T17:37:19.000Z,29
2018-08-24T17:38:19.000Z,29
2018-08-24T17:39:19.000Z,29
2018-08-24T17:40:19.000Z,29
2018-08-24T17:41:19.000Z,29
2018-08-24T17:42:19.000Z,29
2018-08-24T17:44:19.000Z,29
2018-08-24T17:45:19.000Z,29
2018-08-24T17:46:19.000Z,29
2018-08-24T17:47:19.000Z,29
2018-08-24T17:48:19.000Z,29
2018-08-24T17:49:19.000Z,29
2018-08-24T17:50:19.000Z,29
2018-08-24T17:52:19.000Z,29
2018-08-24T17:54:19.000Z,29
2018-08-24T17:55:19.000Z,29
2018-08-24T17:56:19.000Z,29
2018-08-24T17:57:19.000Z,29
2018-08-24T17:59:19.000Z,29
2018-08-24T18:00:19.000Z,29
2018-08-24T18:01:19.000Z,29
2018-08-24T18:02:19.000Z,29
2018-08-24T18:03:19.000Z,29
2018-08-24T18:04:19.000Z,29
2018-08-24T18:05:19.000Z,29
2018-08-24T18:06:19.000Z,30
2018-08-24T18:08:19.000Z,29
2018-08-24T18:09:19.000Z,30
2018-08-24T18:10:19.000Z,30
2018-08-24T18:11:19.000Z,30
2018-08-24T18:12:19.000Z,30
2018-08-24T18:13:19.000Z,30
2018-08-24T18:14:19.000Z,30
2018-08-24T18:15:19.000Z,30
2018-08-24T18:16:19.000Z,29
2018-08-24T18:17:19.000Z,30
2018-08-24T18:18:19.000Z,30
2018-08-24T18:19:19.000Z,30
2018-08-24T18:20:19.000Z,30
2018-08-24T18:21:19.000Z,30
2018-08-24T18:22:19.000Z,30
2018-08-24T18:23:19.000Z,30
2018-08-24T18:24:19.000Z,30
2018-08-24T18:25:19.000Z,30
2018-08-24T18:26:19.000Z,30
2018-08-24T18:27:19.000Z,29
2018-08-24T18:28:19.000Z,30
2018-08-24T18:29:19.000Z,30
2018-08-24T18:30:19.000Z,30
2018-08-24T18:32:19.000Z,29
2018-08-24T18:33:19.000Z,30
2018-08-24T18:34:19.000Z,30
2018-08-24T18:35:19.000Z,30
2018-08-24T18:37:19.000Z,30
2018-08-24T18:38:19.000Z,30
2018-08-24T18:39:19.000Z,30
2018-08-24T18:40:19.000Z,30
2018-08-24T18:41:19.000Z,30
2018-08-24T18:42:19.000Z,30
2018-08-24T18:43:19.000Z,30
2018-08-24T18:44:19.000Z,30
2018-08-24T18:45:19.000Z,30
2018-08-24T18:46:19.000Z,30
2018-08-24T18:47:19.000Z,30
2018-08-24T18:48:19.000Z,30
2018-08-24T18:49:19.000Z,30
2018-08-24T18:50:19.000Z,30
2018-08-24T18:51:19.000Z,30
2018-08-24T18:53:19.000Z,30
2018-08-24T18:54:19.000Z,30
2018-08-24T18:55:19.000Z,30
2018-08-24T18:56:19.000Z,30
2018-08-24T18:57:19.000Z,30
2018-08-24T18:58:19.000Z,30
2018-08-24T18:59:19.000Z,30
2018-08-24T19:00:19.000Z,30
2018-08-24T19:01:19.000Z,30
2018-08-24T19:02:19.000Z,30
2018-08-24T19:03:19.000Z,30
2018-08-24T19:04:19.000Z,30
2018-08-24T19:05:19.000Z,30
2018-08-24T19:06:19.000Z,30
2018-08-24T19:08:19.000Z,30
2018-08-24T19:09:19.000Z,30
2018-08-24T19:10:19.000Z,30
2018-08-24T19:11:19.000Z,30
2018-08-24T19:12:19.000Z,30
2018-08-24T19:13:19.000Z,30
2018-08-24T19:14:19.000Z,30
2018-08-24T19:15:19.000Z,30
2018-08-24T19:16:19.000Z,30
2018-08-24T19:17:19.000Z,30
2018-08-24T19:18:19.000Z,30
2018-08-24T19:19:19.000Z,30
2018-08-24T19:20:19.000Z,30
2018-08-24T19:21:19.000Z,30
2018-08-24T19:22:19.000Z,30
2018-08-24T19:23:19.000Z,30
2018-08-24T19:24:19.000Z,30
2018-08-24T19:25:19.000Z,30
2018-08-24T19:26:19.000Z,30
2018-08-24T19:27:19.000Z,30
2018-08-24T19:28:19.000Z,30
2018-08-24T19:29:19.000Z,30
2018-08-24T19:30:19.000Z,30
2018-08-24T19:31:19.000Z,30
2018-08-24T19:32:19.000Z,30
2018-08-24T19:33:19.000Z,30
2018-08-24T19:34:19.000Z,30
2018-08-24T19:35:19.000Z,30
2018-08-24T19:36:19.000Z,30
2018-08-24T19:37:19.000Z,30
2018-08-24T19:38:19.000Z,30
2018-08-24T19:39:19.000Z,30
2018-08-24T19:40:19.000Z,30
2018-08-24T19:41:19.000Z,30
2018-08-24T19:42:19.000Z,30
2018-08-24T19:43:19.000Z,30
2018-08-24T19:45:19.000Z,30
2018-08-24T19:46:19.000Z,31
2018-08-24T19:47:19.000Z,31
2018-08-24T19:48:19.000Z,31
2018-08-24T19:49:19.000Z,31
2018-08-24T19:50:19.000Z,31
2018-08-24T19:51:19.000Z,31
2018-08-24T19:52:19.000Z,31
2018-08-24T19:53:19.000Z,31
2018-08-24T19:54:19.000Z,31
2018-08-24T19:55:19.000Z,31
2018-08-24T19:56:19.000Z,31
2018-08-24T19:57:19.000Z,31
2018-08-24T19:59:19.000Z,30
2018-08-24T20:00:19.000Z,31
2018-08-24T20:01:19.000Z,31
2018-08-24T20:02:19.000Z,31
2018-08-24T20:03:19.000Z,31
2018-08-24T20:04:19.000Z,31
2018-08-24T20:05:19.000Z,31
2018-08-24T20:06:19.000Z,31
2018-08-24T20:07:19.000Z,31
2018-08-24T20:08:19.000Z,31
2018-08-24T20:09:19.000Z,31
2018-08-24T20:10:19.000Z,31
2018-08-24T20:11:19.000Z,31
2018-08-24T20:12:19.000Z,31
2018-08-24T20:13:19.000Z,31
2018-08-24T20:14:19.000Z,31
2018-08-24T20:15:19.000Z,31
2018-08-24T20:16:19.000Z,31
2018-08-24T20:18:19.000Z,31
2018-08-24T20:19:19.000Z,31
2018-08-24T20:20:19.000Z,31
2018-08-24T20:21:19.000Z,31
2018-08-24T20:22:19.000Z,31
2018-08-24T20:23:19.000Z,31
2018-08-24T20:24:19.000Z,31
2018-08-24T20:25:19.000Z,31
2018-08-24T20:27:19.000Z,31
2018-08-24T20:28:19.000Z,31
2018-08-24T20:29:19.000Z,31
2018-08-24T20:30:19.000Z,31
2018-08-24T20:31:19.000Z,31
2018-08-24T20:32:19.000Z,31
2018-08-24T20:33:19.000Z,31
2018-08-24T20:34:19.000Z,31
2018-08-24T20:35:19.000Z,31
2018-08-24T20:36:19.000Z,31
2018-08-24T20:37:19.000Z,31
2018-08-24T20:38:19.000Z,31
2018-08-24T20:39:19.000Z,31
2018-08-24T20:41:19.000Z,31
2018-08-24T20:42:19.000Z,31
2018-08-24T20:43:19.000Z,31
2018-08-24T20:44:19.000Z,31
2018-08-24T20:45:19.000Z,31
2018-08-24T20:46:19.000Z,31
2018-08-24T20:47:19.000Z,31
2018-08-24T20:48:19.000Z,31
2018-08-24T20:49:19.000Z,31
2018-08-24T20:50:19.000Z,31
2018-08-24T20:51:19.000Z,31
2018-08-24T20:52:19.000Z,31
2018-08-24T20:53:19.000Z,31
2018-08-24T20:55:19.000Z,31
2018-08-24T20:56:19.000Z,31
2018-08-24T20:57:19.000Z,31
2018-08-24T20:58:19.000Z,31
2018-08-24T20:59:19.000Z,31
2018-08-24T21:00:19.000Z,31
2018-08-24T21:01:19.000Z,31
2018-08-24T21:02:19.000Z,31
2018-08-24T21:03:19.000Z,31
2018-08-24T21:05:19.000Z,31
2018-08-24T21:06:19.000Z,31
2018-08-24T21:07:19.000Z,31
2018-08-24T21:08:19.000Z,31
2018-08-24T21:09:19.000Z,31
2018-08-24T21:10:19.000Z,31
2018-08-24T21:11:19.000Z,31
2018-08-24T21:12:19.000Z,31
2018-08-24T21:13:19.000Z,31
2018-08-24T21:14:19.000Z,31
2018-08-24T21:15:19.000Z,31
2018-08-24T21:16:19.000Z,31
2018-08-24T21:17:19.000Z,31
2018-08-24T21:18:19.000Z,31
2018-08-24T21:19:19.000Z,31
2018-08-24T21:20:19.000Z,31
2018-08-24T21:21:19.000Z,31
2018-08-24T21:22:19.000Z,31
2018-08-24T21:23:19.000Z,31
2018-08-24T21:24:19.000Z,31
2018-08-24T21:25:19.000Z,31
2018-08-24T21:26:19.000Z,31
2018-08-24T21:27:19.000Z,31
2018-08-24T21:28:19.000Z,31
2018-08-24T21:29:19.000Z,31
2018-08-24T21:30:19.000Z,31
2018-08-24T21:31:20.000Z,31
2018-08-24T21:32:20.000Z,31
2018-08-24T21:33:20.000Z,31
2018-08-24T21:34:20.000Z,31
2018-08-24T21:35:20.000Z,31
2018-08-24T21:36:20.000Z,31
2018-08-24T21:38:20.000Z,31
2018-08-24T21:39:20.000Z,31
2018-08-24T21:40:20.000Z,31
2018-08-24T21:41:20.000Z,31
2018-08-24T21:42:20.000Z,31
2018-08-24T21:43:20.000Z,31
2018-08-24T21:44:20.000Z,31
2018-08-24T21:45:20.000Z,31
2018-08-24T21:46:20.000Z,32
2018-08-24T21:47:20.000Z,32
2018-08-24T21:48:20.000Z,32
2018-08-24T21:49:20.000Z,31
2018-08-24T21:50:20.000Z,31
2018-08-24T21:51:20.000Z,31
2018-08-24T21:52:20.000Z,31
2018-08-24T21:53:20.000Z,31
2018-08-24T21:54:20.000Z,31
2018-08-24T21:56:20.000Z,31
2018-08-24T21:57:20.000Z,31
2018-08-24T21:58:20.000Z,31
2018-08-24T21:59:20.000Z,31
2018-08-24T22:00:20.000Z,31
2018-08-24T22:01:20.000Z,31
2018-08-24T22:02:20.000Z,31
2018-08-24T22:03:20.000Z,31
2018-08-24T22:04:20.000Z,31
2018-08-24T22:06:20.000Z,31
2018-08-24T22:07:20.000Z,31
2018-08-24T22:08:20.000Z,31
2018-08-24T22:09:20.000Z,31
2018-08-24T22:10:20.000Z,31
2018-08-24T22:11:20.000Z,31
2018-08-24T22:12:20.000Z,31
2018-08-24T22:13:20.000Z,31
2018-08-24T22:14:20.000Z,31
2018-08-24T22:15:20.000Z,31
2018-08-24T22:16:20.000Z,31
2018-08-24T22:17:20.000Z,31
2018-08-24T22:18:20.000Z,31
2018-08-24T22:19:20.000Z,31
2018-08-24T22:20:20.000Z,32
2018-08-24T22:21:20.000Z,32
2018-08-24T22:22:20.000Z,31
2018-08-24T22:24:20.000Z,31
2018-08-24T22:25:20.000Z,31
2018-08-24T22:27:20.000Z,31
2018-08-24T22:28:20.000Z,32
2018-08-24T22:29:20.000Z,32
2018-08-24T22:30:20.000Z,32
2018-08-24T22:31:20.000Z,32
2018-08-24T22:32:20.000Z,32
2018-08-24T22:33:20.000Z,32
2018-08-24T22:34:19.000Z,32
2018-08-24T22:35:19.000Z,32
2018-08-24T22:36:19.000Z,31
2018-08-24T22:37:19.000Z,32
2018-08-24T22:39:19.000Z,32
2018-08-24T22:40:19.000Z,32
2018-08-24T22:41:19.000Z,32
2018-08-24T22:42:19.000Z,32
2018-08-24T22:43:19.000Z,32
2018-08-24T22:44:19.000Z,32
2018-08-24T22:45:19.000Z,32
2018-08-24T22:46:19.000Z,32
2018-08-24T22:47:19.000Z,32
2018-08-24T22:48:19.000Z,32
2018-08-24T22:50:19.000Z,31
2018-08-24T22:51:19.000Z,32
2018-08-24T22:52:19.000Z,32
2018-08-24T22:53:19.000Z,32
2018-08-24T22:55:19.000Z,31
2018-08-24T22:56:19.000Z,32
2018-08-24T22:57:19.000Z,32
2018-08-24T22:59:19.000Z,32
2018-08-24T23:00:19.000Z,32
2018-08-24T23:01:19.000Z,32
2018-08-24T23:02:19.000Z,32
2018-08-24T23:03:19.000Z,32
2018-08-24T23:04:19.000Z,32
2018-08-24T23:05:19.000Z,32
2018-08-24T23:06:19.000Z,32
2018-08-24T23:07:19.000Z,32
2018-08-24T23:08:19.000Z,32